createdAt,value
2023-03-31T00:02:02.425Z,4.90
2023-03-31T00:05:04.947Z,10.10
2023-03-31T00:08:07.315Z,6.87
2023-03-31T00:11:09.099Z,6.53
2023-03-31T00:14:11.520Z,7.37
2023-03-31T00:17:13.459Z,7.70
2023-03-31T00:20:15.817Z,8.57
2023-03-31T00:23:17.622Z,10.93
2023-03-31T00:26:19.717Z,6.43
2023-03-31T00:29:21.541Z,7.37
2023-03-31T00:32:23.282Z,8.57
2023-03-31T00:35:25.460Z,8.83
2023-03-31T00:38:29.157Z,8.43
2023-03-31T00:41:31.193Z,7.70
2023-03-31T00:44:34.385Z,6.20
2023-03-31T00:47:36.237Z,7.67
2023-03-31T00:50:54.092Z,8.50
2023-03-31T00:54:05.066Z,5.13
2023-03-31T00:57:08.603Z,7.27
2023-03-31T01:00:16.312Z,5.20
2023-03-31T01:03:19.302Z,4.50
2023-03-31T01:06:21.101Z,7.67
2023-03-31T01:09:24.961Z,8.50
2023-03-31T01:12:27.530Z,9.23
2023-03-31T01:15:29.467Z,6.70
2023-03-31T01:18:35.003Z,8.57
2023-03-31T01:22:09.319Z,7.50
2023-03-31T01:25:43.057Z,6.57
2023-03-31T01:28:47.680Z,6.87
2023-03-31T01:32:28.966Z,3.93
2023-03-31T01:35:54.433Z,7.60
2023-03-31T01:39:24.059Z,5.10
2023-03-31T01:42:35.037Z,5.43
2023-03-31T01:46:15.948Z,5.70
2023-03-31T01:49:39.416Z,5.97
2023-03-31T01:53:02.244Z,7.03
2023-03-31T01:56:34.889Z,7.73
2023-03-31T01:59:43.494Z,5.83
2023-03-31T02:02:54.511Z,13.23
2023-03-31T02:06:00.999Z,6.37
2023-03-31T02:09:11.015Z,9.73
2023-03-31T02:12:13.476Z,8.13
2023-03-31T02:15:24.473Z,7.73
2023-03-31T02:18:33.149Z,5.93
2023-03-31T02:21:39.108Z,7.30
2023-03-31T02:24:42.110Z,5.70
2023-03-31T02:27:50.068Z,7.43
2023-03-31T02:31:28.902Z,8.27
2023-03-31T02:34:31.015Z,6.67
2023-03-31T02:37:33.164Z,5.90
2023-03-31T02:40:35.025Z,5.73
2023-03-31T02:43:36.932Z,3.30
2023-03-31T02:46:40.431Z,5.30
2023-03-31T02:49:48.733Z,5.30
2023-03-31T02:53:07.147Z,4.10
2023-03-31T02:56:46.703Z,5.33
2023-03-31T03:00:14.708Z,3.10
2023-03-31T03:03:19.596Z,5.87
2023-03-31T03:06:31.353Z,6.80
2023-03-31T03:09:58.425Z,8.50
2023-03-31T03:13:27.567Z,5.27
2023-03-31T03:16:38.405Z,8.47
2023-03-31T03:19:42.513Z,5.53
2023-03-31T03:22:44.236Z,6.10
2023-03-31T03:25:46.959Z,5.40
2023-03-31T03:28:49.118Z,9.97
2023-03-31T03:31:50.891Z,6.57
2023-03-31T03:34:52.644Z,5.50
2023-03-31T03:37:54.371Z,6.20
2023-03-31T03:40:56.383Z,5.80
2023-03-31T03:43:58.321Z,7.27
2023-03-31T03:47:00.401Z,4.63
2023-03-31T03:50:03.735Z,4.90
2023-03-31T03:53:05.762Z,5.87
2023-03-31T03:56:07.789Z,3.77
2023-03-31T03:59:11.495Z,7.30
2023-03-31T04:02:13.675Z,5.10
2023-03-31T04:05:15.762Z,5.73
2023-03-31T04:08:20.407Z,4.80
2023-03-31T04:11:22.281Z,6.73
2023-03-31T04:14:25.326Z,5.47
2023-03-31T04:17:33.322Z,7.30
2023-03-31T04:20:37.847Z,6.60
2023-03-31T04:23:46.276Z,6.50
2023-03-31T04:26:50.990Z,6.47
2023-03-31T04:29:56.990Z,7.20
2023-03-31T04:33:04.257Z,8.13
2023-03-31T04:36:17.885Z,5.93
2023-03-31T04:39:26.890Z,5.87
2023-03-31T04:42:28.792Z,6.37
2023-03-31T04:45:30.744Z,6.43
2023-03-31T04:48:32.585Z,6.03
2023-03-31T04:51:34.405Z,7.80
2023-03-31T04:54:36.106Z,9.73
2023-03-31T04:57:37.862Z,6.60
2023-03-31T05:00:39.684Z,8.27
2023-03-31T05:03:42.412Z,6.43
2023-03-31T05:06:44.231Z,10.03
2023-03-31T05:09:47.063Z,8.40
2023-03-31T05:12:49.405Z,8.33
2023-03-31T05:15:51.780Z,13.73
2023-03-31T05:18:54.651Z,13.30
2023-03-31T05:21:56.810Z,8.47
2023-03-31T05:24:58.608Z,7.00
2023-03-31T05:28:01.448Z,8.57
2023-03-31T05:31:04.313Z,7.93
2023-03-31T05:34:06.425Z,7.83
2023-03-31T05:37:08.285Z,8.87
2023-03-31T05:40:10.979Z,8.33
2023-03-31T05:43:13.142Z,10.23
2023-03-31T05:46:15.029Z,6.97
2023-03-31T05:49:17.452Z,6.37
2023-03-31T05:52:19.581Z,10.23
2023-03-31T05:55:21.311Z,13.43
2023-03-31T05:58:23.282Z,9.90
2023-03-31T06:01:27.283Z,11.57
2023-03-31T06:04:29.783Z,9.40
2023-03-31T06:07:32.072Z,7.77
2023-03-31T06:10:34.520Z,15.77
2023-03-31T06:13:38.230Z,12.43
2023-03-31T06:16:40.200Z,12.43
2023-03-31T06:19:42.371Z,15.60
2023-03-31T06:22:45.803Z,12.10
2023-03-31T06:25:51.230Z,10.30
2023-03-31T06:28:54.647Z,9.80
2023-03-31T06:31:56.674Z,8.50
2023-03-31T06:34:58.681Z,10.37
2023-03-31T06:38:01.102Z,10.27
2023-03-31T06:41:03.906Z,10.20
2023-03-31T06:44:06.117Z,9.53
2023-03-31T06:47:08.092Z,9.83
2023-03-31T06:50:10.797Z,8.30
2023-03-31T06:53:12.661Z,7.07
2023-03-31T06:56:16.524Z,7.57
2023-03-31T06:59:18.383Z,9.03
2023-03-31T07:02:20.713Z,9.17
2023-03-31T07:05:29.473Z,16.23
2023-03-31T07:08:32.079Z,15.60
2023-03-31T07:11:34.003Z,14.10
2023-03-31T07:14:36.711Z,12.83
2023-03-31T07:17:42.154Z,10.33
2023-03-31T07:20:44.349Z,9.83
2023-03-31T07:23:46.177Z,4.50
2023-03-31T07:26:47.982Z,7.83
2023-03-31T07:29:51.609Z,8.27
2023-03-31T07:32:54.740Z,8.80
2023-03-31T07:36:08.257Z,10.07
2023-03-31T07:39:13.560Z,9.37
2023-03-31T07:42:15.623Z,9.10
2023-03-31T07:45:18.368Z,8.70
2023-03-31T07:48:20.278Z,9.93
2023-03-31T07:51:24.124Z,13.40
2023-03-31T07:54:26.685Z,10.60
2023-03-31T07:57:28.639Z,8.40
2023-03-31T08:00:31.044Z,9.57
2023-03-31T08:03:34.815Z,8.73
2023-03-31T08:06:37.162Z,8.33
2023-03-31T08:09:40.597Z,10.13
2023-03-31T08:12:42.943Z,10.70
2023-03-31T08:15:45.016Z,11.03
2023-03-31T08:18:47.500Z,9.50
2023-03-31T08:21:49.445Z,9.77
2023-03-31T08:24:51.235Z,6.77
2023-03-31T08:27:53.060Z,6.60
2023-03-31T08:30:54.992Z,13.30
2023-03-31T08:33:57.576Z,9.27
2023-03-31T08:36:59.312Z,12.47
2023-03-31T08:40:05.348Z,8.27
2023-03-31T08:43:14.941Z,17.70
2023-03-31T08:46:18.819Z,10.33
2023-03-31T08:49:22.345Z,15.93
2023-03-31T08:52:29.808Z,12.83
2023-03-31T08:55:51.643Z,16.70
2023-03-31T08:58:54.073Z,12.40
2023-03-31T09:02:22.030Z,11.67
2023-03-31T09:05:49.434Z,8.27
2023-03-31T09:09:03.828Z,12.83
2023-03-31T09:12:11.916Z,10.83
2023-03-31T09:15:25.712Z,8.90
2023-03-31T09:18:36.678Z,11.23
2023-03-31T09:21:43.409Z,12.30
2023-03-31T09:25:01.619Z,10.93
2023-03-31T09:28:06.653Z,10.10
2023-03-31T09:31:20.593Z,12.13
2023-03-31T09:34:33.445Z,11.53
2023-03-31T09:37:35.195Z,11.93
2023-03-31T09:40:37.161Z,12.47
2023-03-31T09:43:41.470Z,11.27
2023-03-31T09:46:43.669Z,14.47
2023-03-31T09:49:53.426Z,11.80
2023-03-31T09:52:58.977Z,13.90
2023-03-31T09:56:08.441Z,11.97
2023-03-31T09:59:22.646Z,13.73
2023-03-31T10:02:35.802Z,14.30
2023-03-31T10:05:59.128Z,12.50
2023-03-31T10:09:05.583Z,12.33
2023-03-31T10:12:15.911Z,14.17
2023-03-31T10:15:27.864Z,14.30
2023-03-31T10:18:38.275Z,9.13
2023-03-31T10:21:40.456Z,8.17
2023-03-31T10:24:44.442Z,6.40
2023-03-31T10:27:49.761Z,7.97
2023-03-31T10:30:54.657Z,8.20
2023-03-31T10:33:58.527Z,10.97
2023-03-31T10:37:03.702Z,5.87
2023-03-31T10:40:21.138Z,6.20
2023-03-31T10:43:44.050Z,7.33
2023-03-31T10:46:52.826Z,6.53
2023-03-31T10:49:57.949Z,4.53
2023-03-31T10:53:14.842Z,7.37
2023-03-31T10:56:48.679Z,5.87
2023-03-31T11:00:16.768Z,4.73
2023-03-31T11:03:27.796Z,4.33
2023-03-31T11:07:06.714Z,3.27
2023-03-31T11:10:14.327Z,3.93
2023-03-31T11:13:40.854Z,3.43
2023-03-31T11:16:45.730Z,3.07
2023-03-31T11:19:53.298Z,4.87
2023-03-31T11:23:33.080Z,3.00
2023-03-31T11:26:45.320Z,3.17
2023-03-31T11:30:07.760Z,3.37
2023-03-31T11:33:51.016Z,2.63
2023-03-31T11:37:01.761Z,3.57
2023-03-31T11:40:09.597Z,4.47
2023-03-31T11:43:36.364Z,3.20
2023-03-31T11:46:46.597Z,3.40
2023-03-31T11:49:53.265Z,4.67
2023-03-31T11:53:02.911Z,2.87
2023-03-31T11:56:08.212Z,3.43
2023-03-31T11:59:15.885Z,3.90
2023-03-31T12:02:24.234Z,2.20
2023-03-31T12:05:28.641Z,2.70
2023-03-31T12:09:06.452Z,2.80
2023-03-31T12:12:18.536Z,1.30
2023-03-31T12:15:42.865Z,2.43
2023-03-31T12:19:15.028Z,4.70
2023-03-31T12:22:34.507Z,1.43
2023-03-31T12:26:08.155Z,2.30
2023-03-31T12:29:41.205Z,3.87
2023-03-31T12:32:55.453Z,1.17
2023-03-31T12:36:25.045Z,1.37
2023-03-31T12:39:44.686Z,0.57
2023-03-31T12:43:05.364Z,3.43
2023-03-31T12:46:39.022Z,3.07
2023-03-31T12:49:43.626Z,3.63
2023-03-31T12:53:05.793Z,5.40
2023-03-31T12:56:08.635Z,3.67
2023-03-31T12:59:32.152Z,3.80
2023-03-31T13:02:34.089Z,2.43
2023-03-31T13:05:39.056Z,4.93
2023-03-31T13:09:08.296Z,1.73
2023-03-31T13:12:16.103Z,1.60
2023-03-31T13:15:18.227Z,4.40
2023-03-31T13:18:21.614Z,2.33
2023-03-31T13:21:24.526Z,3.27
2023-03-31T13:24:27.860Z,4.10
2023-03-31T13:27:49.560Z,3.60
2023-03-31T13:30:51.453Z,5.20
2023-03-31T13:33:58.849Z,4.50
2023-03-31T13:37:57.727Z,2.83
2023-03-31T13:41:37.776Z,1.67
2023-03-31T13:45:01.393Z,2.83
2023-03-31T13:48:57.585Z,1.97
2023-03-31T13:52:11.410Z,1.93
2023-03-31T13:55:52.619Z,2.43
2023-03-31T13:59:31.594Z,4.87
2023-03-31T14:02:47.184Z,4.57
2023-03-31T14:06:07.034Z,2.77
2023-03-31T14:09:23.912Z,3.33
2023-03-31T14:12:33.260Z,7.10
2023-03-31T14:15:37.726Z,6.07
2023-03-31T14:18:46.300Z,6.50
2023-03-31T14:22:02.488Z,5.83
2023-03-31T14:25:36.047Z,4.90
2023-03-31T14:28:54.334Z,5.03
2023-03-31T14:32:02.448Z,5.20
2023-03-31T14:35:38.812Z,1.73
2023-03-31T14:38:40.754Z,4.43
2023-03-31T14:41:44.619Z,3.03
2023-03-31T14:44:48.677Z,4.33
2023-03-31T14:47:55.478Z,4.20
2023-03-31T14:51:00.928Z,5.67
2023-03-31T14:54:02.991Z,3.43
2023-03-31T14:57:05.876Z,6.77
2023-03-31T15:00:13.016Z,4.23
2023-03-31T15:03:16.391Z,3.10
2023-03-31T15:06:18.254Z,5.13
2023-03-31T15:09:33.891Z,3.87
2023-03-31T15:12:38.314Z,2.67
2023-03-31T15:15:40.345Z,1.13
2023-03-31T15:18:42.221Z,0.20
2023-03-31T15:21:45.612Z,0.90
2023-03-31T15:24:47.540Z,0.67
2023-03-31T15:28:00.641Z,1.80
2023-03-31T15:31:10.013Z,2.20
2023-03-31T15:34:36.209Z,1.00
2023-03-31T15:37:41.400Z,0.30
2023-03-31T15:40:45.683Z,1.07
2023-03-31T15:43:52.944Z,2.13
2023-03-31T15:47:06.450Z,0.87
2023-03-31T15:50:08.319Z,1.17
2023-03-31T15:53:25.288Z,1.37
2023-03-31T15:56:42.555Z,7.27
2023-03-31T15:59:56.679Z,5.53
2023-03-31T16:03:01.849Z,12.43
2023-03-31T16:06:10.773Z,7.60
2023-03-31T16:09:26.628Z,3.23
2023-03-31T16:12:33.631Z,6.70
2023-03-31T16:15:42.357Z,2.83
2023-03-31T16:18:51.150Z,2.17
2023-03-31T16:21:56.432Z,3.80
2023-03-31T16:24:58.751Z,3.17
2023-03-31T16:28:02.817Z,3.63
2023-03-31T16:31:22.467Z,3.23
2023-03-31T16:34:24.394Z,1.10
2023-03-31T16:37:27.360Z,2.57
2023-03-31T16:40:38.868Z,2.73
2023-03-31T16:43:41.416Z,3.40
2023-03-31T16:46:43.251Z,3.80
2023-03-31T16:49:45.014Z,9.30
2023-03-31T16:52:47.331Z,4.10
2023-03-31T16:55:49.694Z,1.93
2023-03-31T16:58:53.769Z,2.40
2023-03-31T17:01:55.842Z,2.40
2023-03-31T17:05:06.200Z,1.37
2023-03-31T17:08:15.605Z,2.37
2023-03-31T17:11:17.663Z,4.33
2023-03-31T17:14:19.877Z,2.97
2023-03-31T17:17:21.925Z,4.40
2023-03-31T17:20:23.810Z,3.43
2023-03-31T17:23:26.461Z,4.30
2023-03-31T17:26:28.329Z,6.60
2023-03-31T17:29:30.085Z,4.80
2023-03-31T17:32:31.872Z,7.03
2023-03-31T17:35:33.657Z,4.07
2023-03-31T17:38:35.703Z,4.93
2023-03-31T17:41:37.787Z,4.70
2023-03-31T17:44:40.740Z,4.97
2023-03-31T17:47:44.326Z,7.27
2023-03-31T17:50:46.302Z,6.33
2023-03-31T17:53:48.465Z,7.57
2023-03-31T17:56:50.658Z,5.57
2023-03-31T17:59:52.462Z,2.60
2023-03-31T18:02:55.497Z,3.80
2023-03-31T18:05:57.821Z,1.30
2023-03-31T18:08:59.857Z,2.37
2023-03-31T18:12:01.594Z,1.73
2023-03-31T18:15:06.929Z,2.63
2023-03-31T18:18:08.712Z,2.23
2023-03-31T18:21:13.181Z,1.60
2023-03-31T18:24:15.118Z,2.80
2023-03-31T18:27:17.100Z,3.83
2023-03-31T18:30:18.929Z,3.27
2023-03-31T18:33:21.547Z,1.50
2023-03-31T18:36:24.236Z,2.03
2023-03-31T18:39:26.317Z,3.30
2023-03-31T18:42:28.124Z,4.57
2023-03-31T18:45:30.899Z,4.30
2023-03-31T18:48:32.973Z,3.83
2023-03-31T18:51:34.808Z,5.23
2023-03-31T18:54:36.682Z,4.43
2023-03-31T18:57:38.606Z,3.27
2023-03-31T19:00:41.176Z,3.53
2023-03-31T19:03:44.748Z,5.00
2023-03-31T19:06:46.885Z,4.43
2023-03-31T19:09:49.118Z,6.27
2023-03-31T19:12:50.999Z,4.67
2023-03-31T19:15:53.048Z,5.57
2023-03-31T19:18:55.641Z,5.93
2023-03-31T19:21:58.507Z,5.53
2023-03-31T19:25:00.264Z,6.17
2023-03-31T19:28:02.201Z,4.07
2023-03-31T19:31:05.243Z,5.17
2023-03-31T19:34:11.093Z,4.03
2023-03-31T19:37:13.661Z,4.37
2023-03-31T19:40:15.507Z,4.27
2023-03-31T19:43:23.905Z,4.23
2023-03-31T19:46:25.990Z,3.93
2023-03-31T19:49:27.837Z,6.03
2023-03-31T19:52:30.155Z,7.50
2023-03-31T19:55:31.999Z,5.87
2023-03-31T19:58:37.874Z,5.07
2023-03-31T20:01:39.720Z,4.00
2023-03-31T20:04:41.824Z,4.53
2023-03-31T20:07:43.821Z,3.27
2023-03-31T20:10:45.755Z,4.47
2023-03-31T20:13:48.209Z,4.07
2023-03-31T20:16:51.086Z,8.63
2023-03-31T20:19:52.807Z,6.00
2023-03-31T20:22:54.677Z,3.83
2023-03-31T20:25:57.035Z,4.63
2023-03-31T20:29:02.561Z,3.87
2023-03-31T20:32:05.783Z,6.37
2023-03-31T20:35:07.770Z,7.37
2023-03-31T20:38:09.799Z,7.13
2023-03-31T20:41:12.555Z,8.07
2023-03-31T20:44:15.708Z,6.20
2023-03-31T20:47:17.765Z,6.77
2023-03-31T20:50:22.353Z,7.47
2023-03-31T20:53:24.698Z,7.53
2023-03-31T20:56:32.108Z,6.93
2023-03-31T20:59:33.974Z,7.10
2023-03-31T21:02:37.147Z,9.17
2023-03-31T21:05:46.501Z,5.47
2023-03-31T21:08:52.361Z,6.23
2023-03-31T21:11:54.234Z,5.60
2023-03-31T21:14:56.176Z,7.63
2023-03-31T21:17:58.106Z,3.77
2023-03-31T21:21:05.434Z,6.37
2023-03-31T21:24:08.485Z,8.47
2023-03-31T21:27:10.320Z,4.23
2023-03-31T21:30:13.034Z,5.37
2023-03-31T21:33:14.928Z,5.03
2023-03-31T21:36:21.560Z,4.63
2023-03-31T21:39:23.345Z,6.97
2023-03-31T21:42:25.206Z,5.57
2023-03-31T21:45:27.187Z,2.77
2023-03-31T21:48:29.823Z,5.53
2023-03-31T21:51:31.766Z,5.50
2023-03-31T21:54:33.578Z,4.97
2023-03-31T21:57:35.537Z,5.07
2023-03-31T22:00:37.805Z,3.33
2023-03-31T22:03:42.225Z,4.47
2023-03-31T22:06:44.142Z,3.97
2023-03-31T22:09:46.087Z,3.10
2023-03-31T22:12:47.936Z,5.50
2023-03-31T22:15:49.803Z,4.10
2023-03-31T22:18:52.955Z,4.73
2023-03-31T22:21:55.032Z,2.73
2023-03-31T22:24:56.861Z,2.43
2023-03-31T22:27:59.061Z,5.27
2023-03-31T22:31:01.257Z,5.07
2023-03-31T22:34:03.092Z,6.60
2023-03-31T22:37:05.053Z,4.97
2023-03-31T22:40:07.938Z,4.27
2023-03-31T22:43:09.906Z,5.03
2023-03-31T22:46:11.755Z,3.57
2023-03-31T22:49:14.418Z,2.93
2023-03-31T22:52:16.267Z,6.07
2023-03-31T22:55:18.210Z,2.93
2023-03-31T22:58:20.341Z,5.03
2023-03-31T23:01:22.302Z,3.93
2023-03-31T23:04:24.157Z,4.57
2023-03-31T23:07:25.964Z,3.07
2023-03-31T23:10:27.816Z,2.60
2023-03-31T23:13:30.507Z,4.03
2023-03-31T23:16:32.795Z,3.97
2023-03-31T23:19:34.674Z,3.97
2023-03-31T23:22:36.563Z,2.57
2023-03-31T23:25:38.586Z,6.40
2023-03-31T23:28:40.560Z,6.90
2023-03-31T23:31:42.336Z,3.37
2023-03-31T23:34:44.144Z,4.97
2023-03-31T23:37:46.242Z,3.03
2023-03-31T23:40:48.618Z,4.63
2023-03-31T23:43:51.460Z,5.63
2023-03-31T23:46:53.252Z,5.40
2023-03-31T23:49:56.999Z,2.83
2023-03-31T23:52:59.518Z,2.83
2023-03-31T23:56:13.046Z,4.23
2023-03-31T23:59:15.545Z,6.07
